Ilchester, United Kingdom
Current Conditions -  °F | °C
As of 8:50 PM on Friday 28 Nov 2014 (Local Time) from EGDY Reporting Station
Rain Showers Rain Showers  
Wind Chill: 52°   Ceiling: 7000
Heat Index: 52°   Visibility: 6mi
Dew Point: 48°   Wind: 14mph
Humidity: 88%   Direction: 70°ENE
Pressure: 29.62"   Gusts: NA
Location:  51.01°N, 2.68°W
Report Text: EGDY 282050Z AUTO 07012KT 9999 -SHRA BKN070/// SCT110/// 11/09 Q1003
Loading
Personal Weather Stations






























Interactive Weather Map New forecast layout! Learn more

10-Day Weather Forecast

Advertisements
Track Severe Weather on mobile